createdAt,value
2023-04-06T00:02:13.669Z,13.18
2023-04-06T00:04:41.537Z,15.93
2023-04-06T00:07:09.473Z,14.07
2023-04-06T00:09:37.558Z,16.60
2023-04-06T00:12:05.920Z,14.85
2023-04-06T00:14:33.929Z,13.50
2023-04-06T00:17:03.202Z,17.60
2023-04-06T00:19:31.506Z,14.63
2023-04-06T00:21:59.490Z,13.60
2023-04-06T00:24:27.239Z,14.52
2023-04-06T00:26:55.318Z,16.35
2023-04-06T00:29:23.279Z,15.18
2023-04-06T00:31:51.418Z,14.77
2023-04-06T00:34:20.753Z,13.40
2023-04-06T00:36:48.952Z,13.05
2023-04-06T00:39:18.456Z,15.13
2023-04-06T00:41:49.062Z,14.38
2023-04-06T00:44:16.944Z,14.80
2023-04-06T00:46:45.017Z,12.63
2023-04-06T00:49:13.418Z,11.68
2023-04-06T00:51:43.177Z,14.30
2023-04-06T00:54:11.130Z,13.25
2023-04-06T00:56:38.967Z,13.00
2023-04-06T00:59:07.550Z,15.93
2023-04-06T01:01:35.862Z,12.80
2023-04-06T01:04:12.450Z,13.88
2023-04-06T01:06:44.627Z,14.23
2023-04-06T01:09:12.687Z,11.27
2023-04-06T01:11:40.947Z,16.83
2023-04-06T01:14:12.912Z,16.77
2023-04-06T01:16:51.648Z,17.25
2023-04-06T01:19:24.718Z,14.48
2023-04-06T01:21:56.276Z,14.93
2023-04-06T01:24:45.141Z,13.20
2023-04-06T01:27:17.217Z,13.30
2023-04-06T01:30:09.251Z,12.57
2023-04-06T01:32:43.653Z,12.85
2023-04-06T01:35:14.384Z,13.00
2023-04-06T01:37:54.317Z,14.00
2023-04-06T01:42:57.540Z,13.18
2023-04-06T01:45:33.300Z,14.13
2023-04-06T01:48:10.548Z,13.63
2023-04-06T01:50:38.597Z,20.77
2023-04-06T01:53:07.444Z,12.07
2023-04-06T01:55:37.411Z,12.48
2023-04-06T01:58:25.102Z,14.95
2023-04-06T02:00:53.018Z,16.88
2023-04-06T02:03:21.489Z,15.40
2023-04-06T02:05:53.423Z,16.60
2023-04-06T02:08:29.454Z,14.98
2023-04-06T02:10:58.841Z,14.52
2023-04-06T02:13:33.350Z,16.40
2023-04-06T02:16:02.597Z,13.10
2023-04-06T02:18:32.015Z,17.17
2023-04-06T02:20:59.925Z,15.05
2023-04-06T02:23:28.002Z,18.63
2023-04-06T02:25:55.844Z,16.83
2023-04-06T02:28:25.344Z,16.45
2023-04-06T02:30:53.094Z,14.48
2023-04-06T02:33:24.438Z,20.95
2023-04-06T02:35:52.392Z,17.50
2023-04-06T02:38:20.696Z,14.30
2023-04-06T02:40:48.495Z,15.70
2023-04-06T02:43:21.728Z,15.50
2023-04-06T02:45:54.460Z,14.52
2023-04-06T02:48:24.028Z,17.70
2023-04-06T02:50:51.908Z,21.05
2023-04-06T02:53:19.883Z,13.15
2023-04-06T02:55:47.824Z,18.77
2023-04-06T02:58:15.829Z,15.52
2023-04-06T03:00:48.132Z,20.50
2023-04-06T03:03:17.519Z,16.67
2023-04-06T03:05:46.765Z,15.07
2023-04-06T03:08:15.609Z,16.00
2023-04-06T03:10:46.065Z,22.13
2023-04-06T03:13:15.145Z,18.25
2023-04-06T03:15:54.971Z,18.55
2023-04-06T03:18:26.411Z,13.23
2023-04-06T03:20:56.064Z,18.17
2023-04-06T03:23:28.535Z,12.18
2023-04-06T03:26:00.373Z,14.73
2023-04-06T03:28:28.461Z,14.52
2023-04-06T03:30:59.772Z,15.07
2023-04-06T03:34:01.373Z,16.23
2023-04-06T03:36:33.063Z,13.33
2023-04-06T03:39:01.874Z,16.08
2023-04-06T03:41:32.725Z,14.27
2023-04-06T03:44:07.399Z,17.17
2023-04-06T03:46:35.608Z,15.07
2023-04-06T03:49:04.944Z,14.18
2023-04-06T03:51:33.183Z,15.00
2023-04-06T03:54:01.281Z,17.95
2023-04-06T03:56:29.145Z,15.23
2023-04-06T03:58:57.189Z,17.70
2023-04-06T04:01:25.199Z,14.50
2023-04-06T04:03:53.444Z,17.83
2023-04-06T04:06:22.787Z,15.63
2023-04-06T04:08:50.756Z,18.27
2023-04-06T04:11:18.647Z,20.98
2023-04-06T04:13:50.513Z,18.10
2023-04-06T04:16:18.499Z,15.73
2023-04-06T04:18:48.230Z,21.67
2023-04-06T04:21:16.261Z,18.30
2023-04-06T04:23:45.763Z,17.23
2023-04-06T04:26:13.763Z,22.60
2023-04-06T04:28:42.161Z,20.20
2023-04-06T04:31:10.475Z,21.25
2023-04-06T04:33:38.530Z,21.73
2023-04-06T04:38:45.137Z,20.63
2023-04-06T04:41:13.060Z,23.58
2023-04-06T04:43:44.059Z,21.83
2023-04-06T04:46:13.886Z,22.95
2023-04-06T04:48:44.164Z,25.27
2023-04-06T04:51:12.027Z,25.83
2023-04-06T04:53:59.990Z,20.25
2023-04-06T04:56:31.424Z,20.30
2023-04-06T04:59:09.754Z,21.00
2023-04-06T05:01:54.289Z,23.92
2023-04-06T05:04:26.459Z,19.58
2023-04-06T05:07:05.336Z,23.80
2023-04-06T05:09:35.232Z,23.80
2023-04-06T05:12:03.333Z,21.88
2023-04-06T05:14:36.071Z,28.60
2023-04-06T05:17:06.577Z,29.05
2023-04-06T05:19:34.411Z,21.58
2023-04-06T05:22:03.064Z,21.75
2023-04-06T05:24:39.281Z,23.10
2023-04-06T05:27:08.414Z,19.80
2023-04-06T05:29:36.222Z,30.15
2023-04-06T05:32:04.354Z,21.20
2023-04-06T05:34:32.997Z,21.55
2023-04-06T05:37:05.076Z,23.83
2023-04-06T05:39:32.908Z,24.50
2023-04-06T05:42:05.699Z,24.55
2023-04-06T05:44:46.122Z,24.42
2023-04-06T05:47:16.779Z,22.17
2023-04-06T05:49:47.466Z,22.67
2023-04-06T05:52:23.187Z,25.08
2023-04-06T05:54:51.517Z,27.17
2023-04-06T05:57:20.628Z,22.58
2023-04-06T05:59:50.491Z,21.05
2023-04-06T06:02:18.339Z,27.42
2023-04-06T06:04:49.952Z,24.75
2023-04-06T06:07:19.753Z,23.92
2023-04-06T06:09:58.754Z,26.20
2023-04-06T06:12:33.470Z,28.70
2023-04-06T06:15:02.831Z,25.85
2023-04-06T06:17:33.667Z,25.23
2023-04-06T06:20:01.836Z,34.83
2023-04-06T06:22:30.506Z,26.63
2023-04-06T06:24:58.994Z,27.83
2023-04-06T06:27:27.079Z,28.33
2023-04-06T06:29:56.727Z,27.67
2023-04-06T06:32:26.000Z,26.42
2023-04-06T06:34:55.262Z,35.67
2023-04-06T06:37:23.168Z,24.90
2023-04-06T06:39:51.475Z,37.00
2023-04-06T06:42:21.586Z,31.83
2023-04-06T06:45:03.845Z,29.30
2023-04-06T06:47:32.072Z,27.30
2023-04-06T06:49:59.920Z,31.95
2023-04-06T06:52:27.846Z,26.40
2023-04-06T06:54:57.795Z,29.13
2023-04-06T06:57:25.771Z,30.50
2023-04-06T06:59:54.342Z,31.05
2023-04-06T07:02:24.559Z,28.40
2023-04-06T07:04:52.596Z,33.50
2023-04-06T07:07:22.319Z,31.33
2023-04-06T07:09:50.614Z,23.92
2023-04-06T07:12:18.478Z,30.83
2023-04-06T07:14:46.451Z,34.75
2023-04-06T07:17:14.569Z,31.08
2023-04-06T07:19:44.277Z,29.25
2023-04-06T07:22:12.312Z,29.83
2023-04-06T07:24:40.258Z,30.00
2023-04-06T07:27:08.723Z,33.20
2023-04-06T07:29:36.456Z,30.60
2023-04-06T07:32:04.595Z,27.27
2023-04-06T07:34:33.562Z,28.83
2023-04-06T07:37:04.248Z,27.08
2023-04-06T07:39:32.886Z,26.00
2023-04-06T07:42:01.393Z,27.50
2023-04-06T07:44:29.259Z,25.92
2023-04-06T07:46:58.112Z,26.42
2023-04-06T07:49:25.925Z,28.38
2023-04-06T07:51:53.955Z,28.45
2023-04-06T07:54:23.402Z,29.98
2023-04-06T07:56:51.250Z,30.05
2023-04-06T07:59:19.359Z,33.33
2023-04-06T08:01:47.187Z,34.80
2023-04-06T08:04:15.072Z,32.75
2023-04-06T08:06:43.062Z,32.78
2023-04-06T08:09:10.977Z,33.38
2023-04-06T08:11:40.139Z,34.35
2023-04-06T08:14:09.050Z,28.92
2023-04-06T08:16:37.251Z,34.95
2023-04-06T08:19:05.327Z,35.30
2023-04-06T08:21:33.269Z,30.15
2023-04-06T08:24:01.044Z,28.98
2023-04-06T08:26:29.134Z,29.67
2023-04-06T08:28:58.311Z,30.30
2023-04-06T08:31:27.280Z,29.13
2023-04-06T08:33:55.032Z,28.55
2023-04-06T08:36:24.017Z,30.35
2023-04-06T08:38:51.941Z,28.45
2023-04-06T08:41:20.373Z,33.92
2023-04-06T08:43:49.938Z,28.80
2023-04-06T08:46:19.697Z,30.05
2023-04-06T08:48:49.772Z,33.80
2023-04-06T08:51:18.097Z,30.98
2023-04-06T08:53:46.070Z,28.10
2023-04-06T08:56:14.432Z,35.00
2023-04-06T08:58:42.476Z,31.83
2023-04-06T09:01:11.488Z,30.30
2023-04-06T09:03:42.331Z,28.17
2023-04-06T09:06:10.694Z,33.63
2023-04-06T09:08:41.164Z,31.88
2023-04-06T09:11:09.695Z,32.28
2023-04-06T09:13:47.414Z,28.92
2023-04-06T09:16:15.534Z,36.58
2023-04-06T09:18:45.034Z,31.77
2023-04-06T09:21:13.069Z,32.35
2023-04-06T09:23:41.503Z,31.98
2023-04-06T09:26:10.671Z,35.75
2023-04-06T09:28:49.017Z,31.55
2023-04-06T09:31:18.260Z,32.08
2023-04-06T09:33:47.828Z,29.65
2023-04-06T09:36:16.812Z,33.25
2023-04-06T09:38:55.744Z,40.28
2023-04-06T09:41:25.536Z,35.53
2023-04-06T09:43:54.020Z,37.15
2023-04-06T09:46:24.867Z,36.90
2023-04-06T09:48:54.833Z,31.40
2023-04-06T09:51:22.756Z,30.83
2023-04-06T09:53:54.263Z,33.83
2023-04-06T09:56:26.778Z,34.72
2023-04-06T09:58:59.312Z,36.40
2023-04-06T10:01:28.744Z,32.20
2023-04-06T10:04:04.616Z,32.80
2023-04-06T10:06:36.359Z,33.58
2023-04-06T10:09:06.760Z,39.15
2023-04-06T10:11:35.029Z,34.40
2023-04-06T10:14:03.121Z,33.40
2023-04-06T10:16:31.528Z,34.90
2023-04-06T10:19:04.568Z,34.47
2023-04-06T10:21:33.671Z,29.40
2023-04-06T10:24:03.293Z,36.17
2023-04-06T10:26:32.444Z,32.17
2023-04-06T10:29:05.799Z,33.08
2023-04-06T10:31:34.124Z,30.15
2023-04-06T10:34:04.493Z,34.90
2023-04-06T10:36:34.656Z,28.40
2023-04-06T10:39:04.187Z,32.65
2023-04-06T10:41:36.429Z,35.05
2023-04-06T10:44:04.502Z,29.80
2023-04-06T10:46:33.278Z,25.90
2023-04-06T10:49:13.945Z,26.92
2023-04-06T10:51:42.233Z,23.27
2023-04-06T10:54:10.684Z,31.02
2023-04-06T10:56:40.064Z,26.63
2023-04-06T10:59:08.399Z,24.90
2023-04-06T11:01:36.484Z,29.63
2023-04-06T11:04:04.415Z,23.80
2023-04-06T11:06:33.661Z,27.90
2023-04-06T11:09:01.707Z,26.15
2023-04-06T11:11:30.169Z,18.52
2023-04-06T11:13:59.533Z,19.08
2023-04-06T11:16:29.871Z,15.52
2023-04-06T11:18:58.740Z,15.60
2023-04-06T11:21:40.567Z,17.35
2023-04-06T11:24:09.811Z,18.80
2023-04-06T11:26:46.060Z,16.95
2023-04-06T11:29:14.506Z,15.43
2023-04-06T11:31:43.643Z,15.20
2023-04-06T11:34:12.677Z,16.50
2023-04-06T11:36:44.433Z,14.10
2023-04-06T11:39:12.616Z,15.30
2023-04-06T11:41:40.443Z,13.77
2023-04-06T11:44:08.797Z,14.60
2023-04-06T11:46:36.605Z,15.60
2023-04-06T11:49:04.793Z,14.50
2023-04-06T11:51:32.845Z,13.88
2023-04-06T11:54:02.397Z,15.77
2023-04-06T11:56:31.501Z,15.70
2023-04-06T11:59:01.002Z,12.38
2023-04-06T12:01:29.010Z,13.43
2023-04-06T12:03:56.922Z,18.02
2023-04-06T12:06:26.595Z,15.50
2023-04-06T12:08:54.722Z,13.48
2023-04-06T12:11:24.410Z,14.93
2023-04-06T12:13:52.198Z,13.52
2023-04-06T12:16:20.621Z,14.77
2023-04-06T12:18:48.470Z,10.63
2023-04-06T12:21:16.421Z,13.15
2023-04-06T12:23:44.202Z,12.80
2023-04-06T12:26:13.266Z,10.27
2023-04-06T12:28:42.697Z,8.13
2023-04-06T12:31:17.061Z,9.77
2023-04-06T12:33:45.923Z,12.20
2023-04-06T12:36:14.590Z,11.02
2023-04-06T12:38:42.582Z,10.43
2023-04-06T12:41:10.451Z,13.40
2023-04-06T12:43:38.336Z,11.18
2023-04-06T12:46:07.634Z,13.98
2023-04-06T12:48:36.520Z,13.70
2023-04-06T12:51:05.704Z,10.70
2023-04-06T12:53:34.430Z,15.68
2023-04-06T12:56:04.669Z,10.98
2023-04-06T12:58:32.571Z,12.90
2023-04-06T13:01:04.155Z,10.95
2023-04-06T13:03:33.716Z,14.43
2023-04-06T13:06:02.576Z,12.20
2023-04-06T13:08:30.634Z,11.55
2023-04-06T13:10:58.620Z,10.32
2023-04-06T13:13:27.610Z,12.43
2023-04-06T13:15:56.486Z,12.43
2023-04-06T13:18:24.986Z,10.13
2023-04-06T13:20:56.460Z,13.15
2023-04-06T13:23:24.312Z,10.70
2023-04-06T13:25:59.721Z,14.32
2023-04-06T13:28:28.195Z,11.70
2023-04-06T13:30:56.680Z,12.48
2023-04-06T13:33:24.747Z,12.35
2023-04-06T13:35:54.029Z,11.13
2023-04-06T13:38:22.302Z,12.38
2023-04-06T13:40:51.806Z,14.35
2023-04-06T13:43:20.617Z,12.32
2023-04-06T13:45:51.949Z,12.75
2023-04-06T13:48:19.913Z,11.27
2023-04-06T13:50:47.900Z,11.57
2023-04-06T13:53:17.235Z,11.68
2023-04-06T13:55:45.195Z,11.57
2023-04-06T13:58:14.062Z,13.25
2023-04-06T14:00:42.046Z,12.90
2023-04-06T14:03:13.209Z,12.93
2023-04-06T14:05:41.545Z,13.95
2023-04-06T14:08:09.470Z,13.00
2023-04-06T14:10:41.233Z,11.85
2023-04-06T14:13:09.073Z,12.85
2023-04-06T14:15:37.072Z,14.10
2023-04-06T14:18:05.222Z,14.77
2023-04-06T14:20:33.528Z,14.52
2023-04-06T14:23:02.349Z,13.65
2023-04-06T14:25:32.566Z,14.88
2023-04-06T14:28:02.162Z,14.30
2023-04-06T14:30:32.396Z,14.88
2023-04-06T14:33:00.772Z,16.15
2023-04-06T14:35:29.452Z,17.00
2023-04-06T14:37:59.117Z,15.68
2023-04-06T14:40:27.233Z,14.30
2023-04-06T14:42:56.991Z,13.85
2023-04-06T14:45:28.809Z,19.52
2023-04-06T14:47:56.686Z,16.45
2023-04-06T14:50:24.958Z,16.48
2023-04-06T14:52:53.139Z,15.93
2023-04-06T14:55:20.866Z,15.45
2023-04-06T14:57:48.895Z,15.15
2023-04-06T15:00:17.780Z,18.75
2023-04-06T15:02:47.238Z,16.13
2023-04-06T15:05:15.577Z,16.45
2023-04-06T15:07:43.668Z,19.95
2023-04-06T15:10:12.379Z,19.08
2023-04-06T15:12:40.348Z,16.75
2023-04-06T15:15:09.235Z,15.23
2023-04-06T15:17:37.107Z,14.77
2023-04-06T15:20:07.720Z,15.45
2023-04-06T15:22:35.525Z,15.73
2023-04-06T15:25:03.319Z,14.77
2023-04-06T15:27:31.389Z,15.45
2023-04-06T15:30:00.666Z,14.15
2023-04-06T15:32:28.882Z,18.15
2023-04-06T15:34:59.584Z,15.18
2023-04-06T15:37:29.139Z,16.73
2023-04-06T15:39:58.171Z,18.25
2023-04-06T15:42:26.962Z,16.05
2023-04-06T15:44:54.895Z,15.63
2023-04-06T15:47:22.969Z,18.17
2023-04-06T15:49:50.807Z,13.43
2023-04-06T15:52:18.647Z,17.30
2023-04-06T15:54:47.874Z,14.27
2023-04-06T15:57:15.983Z,16.10
2023-04-06T15:59:44.135Z,19.15
2023-04-06T16:02:12.224Z,14.73
2023-04-06T16:04:40.327Z,20.17
2023-04-06T16:07:08.242Z,16.55
2023-04-06T16:09:36.277Z,16.67
2023-04-06T16:12:08.934Z,18.92
2023-04-06T16:14:42.404Z,14.00
2023-04-06T16:17:13.649Z,17.75
2023-04-06T16:19:44.401Z,19.73
2023-04-06T16:22:13.160Z,14.00
2023-04-06T16:24:40.897Z,14.82
2023-04-06T16:27:10.901Z,16.40
2023-04-06T16:29:38.879Z,16.17
2023-04-06T16:32:06.992Z,20.17
2023-04-06T16:34:35.379Z,17.05
2023-04-06T16:37:03.697Z,17.77
2023-04-06T16:39:31.847Z,17.70
2023-04-06T16:42:02.330Z,16.58
2023-04-06T16:44:32.237Z,21.13
2023-04-06T16:47:00.369Z,18.50
2023-04-06T16:49:28.742Z,18.92
2023-04-06T16:51:57.154Z,18.33
2023-04-06T16:54:25.400Z,19.27
2023-04-06T16:56:53.357Z,18.75
2023-04-06T16:59:21.117Z,16.63
2023-04-06T17:01:50.579Z,18.27
2023-04-06T17:04:18.529Z,18.27
2023-04-06T17:06:46.472Z,19.48
2023-04-06T17:09:14.505Z,19.20
2023-04-06T17:11:46.990Z,17.65
2023-04-06T17:14:15.098Z,18.42
2023-04-06T17:16:43.157Z,18.60
2023-04-06T17:19:12.783Z,17.42
2023-04-06T17:21:41.777Z,16.50
2023-04-06T17:24:10.166Z,19.02
2023-04-06T17:26:38.586Z,18.85
2023-04-06T17:29:06.489Z,16.95
2023-04-06T17:31:34.489Z,20.13
2023-04-06T17:34:02.252Z,21.15
2023-04-06T17:36:32.836Z,15.48
2023-04-06T17:39:01.193Z,14.60
2023-04-06T17:41:32.658Z,14.23
2023-04-06T17:44:00.482Z,15.55
2023-04-06T17:46:28.610Z,16.75
2023-04-06T17:48:56.739Z,19.45
2023-04-06T17:51:25.039Z,16.40
2023-04-06T17:53:54.356Z,17.15
2023-04-06T17:56:23.568Z,14.70
2023-04-06T18:01:24.858Z,15.43
2023-04-06T18:03:53.035Z,14.60
2023-04-06T18:06:25.616Z,14.25
2023-04-06T18:08:55.444Z,15.07
2023-04-06T18:11:23.286Z,14.63
2023-04-06T18:13:51.377Z,15.52
2023-04-06T18:16:21.378Z,13.48
2023-04-06T18:18:49.678Z,15.30
2023-04-06T18:21:17.733Z,11.85
2023-04-06T18:23:45.725Z,13.10
2023-04-06T18:26:18.874Z,12.13
2023-04-06T18:28:47.098Z,13.70
2023-04-06T18:31:15.350Z,17.77
2023-04-06T18:33:44.061Z,15.95
2023-04-06T18:36:13.723Z,14.18
2023-04-06T18:38:43.771Z,12.25
2023-04-06T18:41:11.606Z,15.25
2023-04-06T18:43:41.502Z,13.38
2023-04-06T18:46:12.736Z,12.02
2023-04-06T18:48:40.903Z,12.38
2023-04-06T18:51:09.119Z,12.80
2023-04-06T18:53:38.575Z,13.63
2023-04-06T18:56:14.766Z,17.27
2023-04-06T18:58:44.565Z,12.65
2023-04-06T19:01:12.698Z,11.82
2023-04-06T19:03:40.817Z,12.32
2023-04-06T19:06:09.196Z,13.45
2023-04-06T19:08:38.605Z,12.00
2023-04-06T19:11:08.238Z,16.45
2023-04-06T19:13:38.238Z,14.27
2023-04-06T19:16:10.716Z,13.38
2023-04-06T19:18:42.566Z,12.93
2023-04-06T19:21:16.772Z,14.48
2023-04-06T19:23:45.242Z,13.25
2023-04-06T19:26:13.940Z,15.55
2023-04-06T19:28:43.034Z,13.77
2023-04-06T19:31:14.657Z,13.35
2023-04-06T19:33:43.103Z,13.07
2023-04-06T19:36:11.196Z,12.20
2023-04-06T19:38:39.303Z,10.48
2023-04-06T19:41:07.544Z,11.13
2023-04-06T19:43:36.078Z,11.57
2023-04-06T19:46:04.664Z,12.55
2023-04-06T19:48:34.261Z,11.95
2023-04-06T19:51:02.448Z,12.35
2023-04-06T19:53:30.642Z,12.50
2023-04-06T19:55:58.618Z,15.30
2023-04-06T19:58:26.772Z,14.35
2023-04-06T20:00:54.790Z,11.93
2023-04-06T20:03:22.917Z,13.07
2023-04-06T20:05:52.668Z,10.85
2023-04-06T20:08:20.434Z,11.50
2023-04-06T20:10:48.718Z,12.02
2023-04-06T20:13:16.674Z,10.45
2023-04-06T20:15:45.170Z,11.48
2023-04-06T20:18:13.029Z,9.68
2023-04-06T20:20:41.322Z,11.10
2023-04-06T20:23:12.662Z,11.55
2023-04-06T20:25:40.827Z,11.60
2023-04-06T20:28:09.207Z,11.52
2023-04-06T20:30:37.378Z,10.25
2023-04-06T20:33:05.491Z,11.35
2023-04-06T20:35:34.906Z,9.70
2023-04-06T20:38:02.753Z,10.07
2023-04-06T20:40:32.271Z,12.05
2023-04-06T20:43:00.938Z,10.65
2023-04-06T20:45:29.738Z,11.27
2023-04-06T20:47:58.041Z,12.50
2023-04-06T20:50:26.274Z,12.57
2023-04-06T20:52:54.107Z,11.27
2023-04-06T20:55:21.862Z,13.23
2023-04-06T20:57:51.528Z,13.88
2023-04-06T21:00:19.879Z,14.07
2023-04-06T21:02:48.094Z,14.52
2023-04-06T21:05:16.727Z,13.75
2023-04-06T21:07:44.624Z,15.52
2023-04-06T21:10:12.948Z,17.02
2023-04-06T21:12:41.049Z,16.67
2023-04-06T21:15:11.511Z,15.85
2023-04-06T21:17:39.487Z,17.00
2023-04-06T21:20:09.163Z,18.65
2023-04-06T21:22:39.400Z,19.17
2023-04-06T21:25:08.340Z,20.60
2023-04-06T21:27:36.043Z,20.98
2023-04-06T21:30:04.403Z,16.08
2023-04-06T21:32:33.536Z,18.20
2023-04-06T21:35:01.632Z,19.77
2023-04-06T21:37:29.755Z,22.20
2023-04-06T21:39:57.739Z,24.40
2023-04-06T21:42:26.066Z,25.75
2023-04-06T21:44:54.234Z,24.98
2023-04-06T21:47:22.219Z,23.58
2023-04-06T21:49:51.564Z,26.63
2023-04-06T21:52:19.501Z,25.70
2023-04-06T21:54:47.398Z,28.60
2023-04-06T21:57:15.512Z,26.25
2023-04-06T21:59:43.500Z,30.00
2023-04-06T22:02:11.537Z,28.20
2023-04-06T22:04:39.696Z,26.42
2023-04-06T22:07:09.028Z,27.83
2023-04-06T22:09:36.997Z,29.85
2023-04-06T22:12:04.990Z,29.15
2023-04-06T22:14:32.837Z,29.35
2023-04-06T22:17:00.656Z,33.65
2023-04-06T22:19:28.753Z,34.60
2023-04-06T22:21:56.850Z,36.08
2023-04-06T22:24:27.499Z,35.83
2023-04-06T22:26:56.731Z,42.88
2023-04-06T22:29:24.573Z,46.42
2023-04-06T22:31:52.380Z,39.20
2023-04-06T22:34:20.474Z,43.95
2023-04-06T22:36:48.385Z,41.03
2023-04-06T22:39:16.466Z,44.20
2023-04-06T22:41:45.940Z,47.15
2023-04-06T22:44:13.938Z,49.40
2023-04-06T22:46:41.967Z,46.05
2023-04-06T22:49:10.006Z,42.65
2023-04-06T22:51:37.873Z,47.97
2023-04-06T22:54:05.948Z,46.47
2023-04-06T22:56:33.768Z,49.38
2023-04-06T22:59:03.226Z,52.22
2023-04-06T23:01:31.408Z,48.65
2023-04-06T23:03:59.904Z,51.40
2023-04-06T23:06:28.375Z,51.67
2023-04-06T23:08:56.568Z,48.50
2023-04-06T23:11:24.696Z,47.67
2023-04-06T23:13:52.574Z,43.17
2023-04-06T23:16:21.885Z,41.60
2023-04-06T23:18:49.871Z,45.85
2023-04-06T23:21:17.641Z,42.22
2023-04-06T23:23:46.402Z,44.45
2023-04-06T23:26:14.509Z,41.15
2023-04-06T23:28:42.693Z,48.35
2023-04-06T23:31:10.786Z,45.08
2023-04-06T23:33:40.183Z,42.83
2023-04-06T23:36:08.687Z,49.25
2023-04-06T23:38:36.908Z,40.50
2023-04-06T23:41:05.257Z,37.22
2023-04-06T23:43:33.191Z,37.55
2023-04-06T23:46:01.953Z,33.65
2023-04-06T23:48:29.904Z,34.47
2023-04-06T23:50:59.254Z,31.02
2023-04-06T23:53:28.310Z,36.75
2023-04-06T23:55:56.252Z,33.17
2023-04-06T23:58:24.125Z,35.55
